createdAt,value
2022-12-08T00:00:14.219Z,100367.70
2022-12-08T00:03:11.994Z,100362.96
2022-12-08T00:06:27.529Z,100363.02
2022-12-08T00:20:22.798Z,100345.11
2022-12-08T00:23:07.925Z,100333.52
2022-12-08T00:26:41.421Z,100337.91
2022-12-08T00:29:10.931Z,100339.98
2022-12-08T00:31:47.083Z,100342.86
2022-12-08T00:38:01.044Z,100338.51
2022-12-08T00:40:27.477Z,100341.91
2022-12-08T00:47:00.449Z,100345.59
2022-12-08T00:49:35.671Z,100344.72
2022-12-08T00:56:22.334Z,100349.56
2022-12-08T00:59:07.747Z,100349.90
2022-12-08T01:01:56.536Z,100354.45
2022-12-08T01:04:23.989Z,100342.50
2022-12-08T01:11:05.307Z,100353.63
2022-12-08T01:13:31.396Z,100350.71
2022-12-08T01:16:01.720Z,100355.84
2022-12-08T01:18:56.279Z,100355.95
2022-12-08T01:21:23.225Z,100355.70
2022-12-08T01:24:22.424Z,100353.09
2022-12-08T01:27:15.001Z,100354.04
2022-12-08T01:29:52.596Z,100347.67
2022-12-08T01:32:27.612Z,100348.61
2022-12-08T01:35:17.995Z,100344.23
2022-12-08T01:37:44.160Z,100342.66
2022-12-08T01:40:10.209Z,100340.42
2022-12-08T01:42:52.073Z,100339.02
2022-12-08T01:53:26.293Z,100333.32
2022-12-08T01:59:51.637Z,100336.34
2022-12-08T02:00:00.540Z,100333.27
2022-12-08T02:06:20.328Z,100330.45
2022-12-08T02:23:13.017Z,100305.84
2022-12-08T02:26:39.719Z,100304.29
2022-12-08T02:29:24.404Z,100301.39
2022-12-08T02:32:59.024Z,100300.55
2022-12-08T02:36:23.919Z,100293.74
2022-12-08T02:39:45.547Z,100292.92
2022-12-08T02:45:56.245Z,100287.14
2022-12-08T02:48:22.497Z,100283.25
2022-12-08T02:50:48.438Z,100281.27
2022-12-08T02:55:48.155Z,100282.62
2022-12-08T02:58:28.273Z,100280.29
2022-12-08T03:01:33.081Z,100280.55
2022-12-08T03:04:15.080Z,100281.39
2022-12-08T03:07:53.015Z,100279.20
2022-12-08T03:11:14.057Z,100275.27
2022-12-08T03:14:01.872Z,100267.70
2022-12-08T03:16:31.445Z,100265.52
2022-12-08T03:19:21.585Z,100265.65
2022-12-08T03:25:20.167Z,100255.29
2022-12-08T03:27:46.181Z,100249.23
2022-12-08T03:30:12.494Z,100253.58
2022-12-08T03:40:09.243Z,100247.58
2022-12-08T03:46:48.571Z,100247.13
2022-12-08T03:53:52.516Z,100241.33
2022-12-08T03:56:23.270Z,100239.35
2022-12-08T03:58:53.260Z,100240.84
2022-12-08T04:01:39.806Z,100241.09
2022-12-08T04:04:23.220Z,100249.75
2022-12-08T04:07:02.523Z,100252.17
2022-12-08T04:09:29.504Z,100251.93
2022-12-08T04:12:07.249Z,100251.52
2022-12-08T04:18:34.169Z,100247.98
2022-12-08T04:30:47.538Z,100253.48
2022-12-08T04:40:18.321Z,100251.84
2022-12-08T04:43:05.145Z,100246.27
2022-12-08T04:50:17.668Z,100240.81
2022-12-08T04:52:50.729Z,100235.21
2022-12-08T04:55:16.990Z,100235.07
2022-12-08T04:57:43.232Z,100231.16
2022-12-08T05:00:10.422Z,100224.39
2022-12-08T05:02:39.250Z,100224.95
2022-12-08T05:05:05.835Z,100228.11
2022-12-08T05:08:26.093Z,100238.11
2022-12-08T05:15:05.584Z,100239.38
2022-12-08T05:17:38.049Z,100244.70
2022-12-08T05:20:13.774Z,100255.86
2022-12-08T05:22:40.684Z,100259.05
2022-12-08T05:26:03.794Z,100262.57
2022-12-08T05:28:42.721Z,100262.65
2022-12-08T05:31:38.380Z,100266.15
2022-12-08T05:37:21.783Z,100263.70
2022-12-08T05:40:51.414Z,100263.67
2022-12-08T05:44:08.038Z,100262.34
2022-12-08T05:46:50.924Z,100262.43
2022-12-08T05:49:42.326Z,100258.59
2022-12-08T05:57:16.833Z,100258.36
2022-12-08T05:59:42.973Z,100256.38
2022-12-08T06:02:18.446Z,100253.84
2022-12-08T06:04:59.042Z,100248.36
2022-12-08T06:07:48.663Z,100245.25
2022-12-08T06:10:15.310Z,100244.81
2022-12-08T06:18:08.452Z,100240.27
2022-12-08T06:20:40.835Z,100242.06
2022-12-08T06:23:06.740Z,100244.29
2022-12-08T06:30:00.658Z,100242.01
2022-12-08T06:32:47.404Z,100240.39
2022-12-08T06:38:09.283Z,100237.52
2022-12-08T06:45:09.467Z,100243.66
2022-12-08T06:47:35.841Z,100243.05
2022-12-08T06:50:22.892Z,100238.08
2022-12-08T06:53:31.431Z,100236.53
2022-12-08T06:57:23.723Z,100238.45
2022-12-08T07:00:19.614Z,100232.45
2022-12-08T07:03:47.211Z,100231.11
2022-12-08T07:06:41.506Z,100229.45
2022-12-08T07:09:20.025Z,100228.70
2022-12-08T07:12:02.907Z,100236.65
2022-12-08T07:14:29.402Z,100238.88
2022-12-08T07:17:36.858Z,100238.20
2022-12-08T07:28:53.555Z,100248.38
2022-12-08T07:31:22.888Z,100248.46
2022-12-08T07:33:50.729Z,100249.40
2022-12-08T07:36:47.899Z,100249.48
2022-12-08T07:39:41.530Z,100233.61
2022-12-08T07:42:07.618Z,100242.45
2022-12-08T07:49:01.196Z,100245.47
2022-12-08T07:52:20.057Z,100248.27
2022-12-08T07:54:52.332Z,100247.25
2022-12-08T07:57:30.212Z,100246.38
2022-12-08T08:00:04.965Z,100243.70
2022-12-08T08:02:48.490Z,100242.23
2022-12-08T08:05:20.757Z,100239.48
2022-12-08T08:07:47.732Z,100239.94
2022-12-08T08:10:22.809Z,100239.70
2022-12-08T08:13:14.214Z,100240.20
2022-12-08T08:15:44.006Z,100238.70
2022-12-08T08:18:10.262Z,100236.56
2022-12-08T08:20:53.669Z,100237.55
2022-12-08T08:23:22.577Z,100230.77
2022-12-08T08:25:51.585Z,100234.34
2022-12-08T08:28:22.768Z,100232.42
2022-12-08T08:30:48.896Z,100225.00
2022-12-08T08:33:25.508Z,100224.87
2022-12-08T08:35:51.567Z,100225.46
2022-12-08T08:38:28.795Z,100227.51
2022-12-08T08:40:55.242Z,100228.39
2022-12-08T08:43:36.233Z,100226.61
2022-12-08T08:46:06.102Z,100225.66
2022-12-08T08:48:32.480Z,100228.77
2022-12-08T08:51:07.383Z,100225.71
2022-12-08T08:53:33.574Z,100223.50
2022-12-08T08:56:02.705Z,100225.62
2022-12-08T08:58:29.368Z,100225.48
2022-12-08T09:00:55.841Z,100229.64
2022-12-08T09:03:21.987Z,100232.36
2022-12-08T09:05:48.203Z,100232.75
2022-12-08T09:08:14.627Z,100231.40
2022-12-08T09:10:40.703Z,100230.94
2022-12-08T09:13:06.904Z,100227.33
2022-12-08T09:15:33.001Z,100228.53
2022-12-08T09:18:02.126Z,100227.96
2022-12-08T09:20:28.864Z,100226.80
2022-12-08T09:22:54.922Z,100225.07
2022-12-08T09:25:29.834Z,100223.27
2022-12-08T09:27:56.241Z,100227.17
2022-12-08T09:30:25.394Z,100221.87
2022-12-08T09:33:21.376Z,100220.04
2022-12-08T09:35:47.622Z,100217.28
2022-12-08T09:38:16.704Z,100214.69
2022-12-08T09:40:58.650Z,100208.84
2022-12-08T09:43:46.559Z,100207.63
2022-12-08T09:46:17.858Z,100219.59
2022-12-08T09:49:09.277Z,100223.95
2022-12-08T09:51:45.780Z,100220.17
2022-12-08T09:54:22.126Z,100215.29
2022-12-08T09:56:56.914Z,100217.48
2022-12-08T09:59:43.282Z,100224.80
2022-12-08T10:02:22.808Z,100221.07
2022-12-08T10:08:59.594Z,100220.02
2022-12-08T10:11:44.642Z,100218.71
2022-12-08T10:14:33.006Z,100215.88
2022-12-08T10:17:13.210Z,100217.09
2022-12-08T10:19:41.844Z,100219.00
2022-12-08T10:22:23.964Z,100213.96
2022-12-08T10:25:12.296Z,100214.83
2022-12-08T10:27:56.596Z,100210.23
2022-12-08T10:30:38.996Z,100210.30
2022-12-08T10:33:13.840Z,100207.89
2022-12-08T10:35:47.238Z,100207.13
2022-12-08T10:38:34.398Z,100204.05
2022-12-08T10:41:01.178Z,100205.79
2022-12-08T10:43:27.544Z,100204.94
2022-12-08T10:45:54.174Z,100204.70
2022-12-08T10:48:31.050Z,100199.93
2022-12-08T10:51:01.072Z,100194.95
2022-12-08T10:53:53.241Z,100195.20
2022-12-08T10:56:24.657Z,100186.28
2022-12-08T10:59:05.885Z,100180.60
2022-12-08T11:01:55.730Z,100172.73
2022-12-08T11:08:07.815Z,100167.79
2022-12-08T11:10:43.986Z,100163.21
2022-12-08T11:13:22.062Z,100160.50
2022-12-08T11:15:52.432Z,100159.13
2022-12-08T11:18:30.607Z,100158.86
2022-12-08T11:21:07.248Z,100160.75
2022-12-08T11:23:36.715Z,100158.54
2022-12-08T11:26:31.145Z,100164.45
2022-12-08T11:29:35.360Z,100167.69
2022-12-08T11:32:12.767Z,100166.20
2022-12-08T11:35:10.159Z,100170.88
2022-12-08T11:37:41.806Z,100179.42
2022-12-08T11:40:28.058Z,100180.88
2022-12-08T11:43:22.966Z,100177.45
2022-12-08T11:46:08.842Z,100175.66
2022-12-08T11:49:06.900Z,100175.80
2022-12-08T11:52:17.236Z,100171.73
2022-12-08T11:55:33.767Z,100154.33
2022-12-08T11:58:38.867Z,100164.71
2022-12-08T12:01:05.106Z,100159.40
2022-12-08T12:03:40.248Z,100163.78
2022-12-08T12:12:37.983Z,100151.29
2022-12-08T12:15:49.456Z,100150.55
2022-12-08T12:21:40.249Z,100146.29
2022-12-08T12:24:49.988Z,100140.21
2022-12-08T12:27:50.566Z,100133.86
2022-12-08T12:30:30.291Z,100130.73
2022-12-08T12:33:09.270Z,100127.80
2022-12-08T12:35:43.291Z,100128.40
2022-12-08T12:42:05.261Z,100117.71
2022-12-08T12:44:40.023Z,100113.14
2022-12-08T12:47:12.192Z,100108.09
2022-12-08T12:49:38.748Z,100106.20
2022-12-08T12:58:56.563Z,100100.20
2022-12-08T13:01:26.407Z,100096.35
2022-12-08T13:04:19.638Z,100097.33
2022-12-08T13:07:39.143Z,100093.09
2022-12-08T13:14:06.105Z,100093.10
2022-12-08T13:16:47.433Z,100091.73
2022-12-08T13:19:15.807Z,100090.81
2022-12-08T13:21:50.270Z,100089.79
2022-12-08T13:24:34.692Z,100084.70
2022-12-08T13:27:04.304Z,100081.61
2022-12-08T13:29:31.946Z,100085.27
2022-12-08T13:31:59.591Z,100088.10
2022-12-08T13:34:57.707Z,100091.16
2022-12-08T13:37:53.870Z,100095.79
2022-12-08T13:40:29.891Z,100095.25
2022-12-08T13:43:32.136Z,100091.29
2022-12-08T13:59:30.823Z,100083.09
2022-12-08T14:02:28.615Z,100084.27
2022-12-08T14:05:18.024Z,100080.95
2022-12-08T14:07:47.661Z,100083.70
2022-12-08T14:10:21.317Z,100085.71
2022-12-08T14:12:54.899Z,100082.24
2022-12-08T14:15:21.819Z,100082.48
2022-12-08T14:17:56.089Z,100083.21
2022-12-08T14:20:26.792Z,100084.58
2022-12-08T14:22:53.201Z,100083.91
2022-12-08T14:25:20.736Z,100081.98
2022-12-08T14:27:47.957Z,100077.84
2022-12-08T14:30:14.234Z,100077.92
2022-12-08T14:32:55.124Z,100079.19
2022-12-08T14:35:23.801Z,100082.00
2022-12-08T14:37:53.943Z,100081.58
2022-12-08T14:40:28.088Z,100087.38
2022-12-08T14:43:22.170Z,100088.11
2022-12-08T14:48:37.569Z,100087.20
2022-12-08T14:59:10.784Z,100098.61
2022-12-08T15:07:00.716Z,100102.90
2022-12-08T15:13:47.271Z,100112.16
2022-12-08T15:16:36.884Z,100120.65
2022-12-08T15:19:27.423Z,100124.98
2022-12-08T15:21:59.382Z,100123.64
2022-12-08T15:24:31.244Z,100122.41
2022-12-08T15:30:33.864Z,100128.20
2022-12-08T15:37:15.104Z,100127.53
2022-12-08T15:39:41.600Z,100123.04
2022-12-08T15:42:12.092Z,100129.71
2022-12-08T15:44:38.426Z,100131.39
2022-12-08T15:59:20.125Z,100141.32
2022-12-08T16:01:53.226Z,100150.70
2022-12-08T16:12:05.433Z,100134.58
2022-12-08T16:16:00.375Z,100132.95
2022-12-08T16:19:37.714Z,100135.02
2022-12-08T16:23:07.959Z,100131.50
2022-12-08T16:25:36.367Z,100140.06
2022-12-08T16:28:45.390Z,100149.38
2022-12-08T16:30:58.950Z,100141.58
2022-12-08T16:33:25.456Z,100136.98
2022-12-08T16:35:56.989Z,100140.02
2022-12-08T16:38:35.070Z,100143.27
2022-12-08T16:41:22.344Z,100140.11
2022-12-08T16:43:53.636Z,100133.27
2022-12-08T16:46:28.882Z,100131.13
2022-12-08T16:48:58.246Z,100131.13
2022-12-08T16:51:27.031Z,100125.27
2022-12-08T16:54:15.198Z,100113.90
2022-12-08T17:00:52.993Z,100114.35
2022-12-08T17:03:20.169Z,100115.29
2022-12-08T17:05:47.201Z,100116.29
2022-12-08T17:08:13.548Z,100115.02
2022-12-08T17:10:40.242Z,100112.29
2022-12-08T17:13:06.352Z,100113.52
2022-12-08T17:15:32.485Z,100119.16
2022-12-08T17:17:58.507Z,100121.00
2022-12-08T17:20:27.315Z,100125.11
2022-12-08T17:22:55.773Z,100130.23
2022-12-08T17:25:21.794Z,100132.50
2022-12-08T17:27:47.760Z,100133.28
2022-12-08T17:30:15.080Z,100137.20
2022-12-08T17:32:42.121Z,100135.73
2022-12-08T17:35:08.895Z,100137.15
2022-12-08T17:37:35.185Z,100142.30
2022-12-08T17:40:01.502Z,100152.31
2022-12-08T17:42:27.721Z,100148.25
2022-12-08T17:44:54.022Z,100144.70
2022-12-08T17:47:20.208Z,100147.02
2022-12-08T17:49:46.206Z,100147.66
2022-12-08T17:52:12.249Z,100144.41
2022-12-08T17:54:38.508Z,100139.54
2022-12-08T17:57:04.884Z,100137.67
2022-12-08T17:59:32.039Z,100135.63
2022-12-08T18:01:58.901Z,100139.73
2022-12-08T18:04:27.050Z,100140.21
2022-12-08T18:06:54.265Z,100135.70
2022-12-08T18:09:20.906Z,100136.92
2022-12-08T18:11:47.081Z,100140.64
2022-12-08T18:14:13.602Z,100144.76
2022-12-08T18:16:42.950Z,100146.39
2022-12-08T18:19:11.012Z,100147.92
2022-12-08T18:21:37.496Z,100148.39
2022-12-08T18:24:04.265Z,100148.76
2022-12-08T18:26:30.351Z,100149.64
2022-12-08T18:28:57.196Z,100151.28
2022-12-08T18:31:23.708Z,100149.01
2022-12-08T18:33:51.350Z,100154.32
2022-12-08T18:36:23.276Z,100158.70
2022-12-08T18:38:50.422Z,100155.33
2022-12-08T18:41:20.368Z,100151.27
2022-12-08T18:43:46.453Z,100147.91
2022-12-08T18:46:13.756Z,100147.98
2022-12-08T18:48:47.663Z,100154.48
2022-12-08T18:51:19.324Z,100155.45
2022-12-08T18:53:45.915Z,100159.29
2022-12-08T18:56:30.143Z,100162.16
2022-12-08T18:59:03.241Z,100163.31
2022-12-08T19:01:35.407Z,100158.02
2022-12-08T19:04:27.391Z,100158.20
2022-12-08T19:06:50.511Z,100154.71
2022-12-08T19:09:16.709Z,100154.57
2022-12-08T19:11:42.662Z,100153.95
2022-12-08T19:14:10.023Z,100148.88
2022-12-08T19:16:36.447Z,100138.63
2022-12-08T19:19:03.825Z,100140.48
2022-12-08T19:24:44.174Z,100142.38
2022-12-08T19:27:13.480Z,100144.56
2022-12-08T19:29:42.703Z,100139.69
2022-12-08T19:32:12.071Z,100146.27
2022-12-08T19:34:38.487Z,100148.09
2022-12-08T19:37:06.070Z,100147.40
2022-12-08T19:39:50.354Z,100148.18
2022-12-08T19:42:40.370Z,100149.41
2022-12-08T19:45:14.499Z,100144.13
2022-12-08T19:47:42.112Z,100147.16
2022-12-08T19:50:28.759Z,100149.72
2022-12-08T19:52:55.580Z,100153.07
2022-12-08T19:55:23.445Z,100157.92
2022-12-08T19:57:54.174Z,100156.08
2022-12-08T20:00:20.741Z,100156.98
2022-12-08T20:02:51.938Z,100154.20
2022-12-08T20:05:21.120Z,100144.42
2022-12-08T20:11:28.756Z,100143.42
2022-12-08T20:13:55.548Z,100142.02
2022-12-08T20:16:23.313Z,100143.98
2022-12-08T20:18:49.788Z,100137.56
2022-12-08T20:21:16.397Z,100135.71
2022-12-08T20:23:42.657Z,100135.33
2022-12-08T20:26:11.875Z,100127.95
2022-12-08T20:28:37.928Z,100123.98
2022-12-08T20:31:04.564Z,100118.83
2022-12-08T20:33:30.933Z,100116.39
2022-12-08T20:36:03.450Z,100117.20
2022-12-08T20:38:30.197Z,100119.33
2022-12-08T20:40:57.725Z,100119.83
2022-12-08T20:43:25.015Z,100118.21
2022-12-08T20:45:51.053Z,100114.82
2022-12-08T20:48:17.193Z,100118.17
2022-12-08T20:50:43.448Z,100120.55
2022-12-08T20:53:09.531Z,100116.97
2022-12-08T20:55:35.737Z,100119.02
2022-12-08T20:58:01.961Z,100121.52
2022-12-08T21:00:28.196Z,100122.75
2022-12-08T21:02:56.724Z,100124.28
2022-12-08T21:05:23.499Z,100126.79
2022-12-08T21:07:49.724Z,100124.83
2022-12-08T21:10:15.907Z,100120.63
2022-12-08T21:12:42.143Z,100120.30
2022-12-08T21:15:10.797Z,100117.85
2022-12-08T21:17:36.937Z,100118.44
2022-12-08T21:20:03.872Z,100117.02
2022-12-08T21:22:30.324Z,100116.60
2022-12-08T21:24:56.357Z,100119.44
2022-12-08T21:27:22.513Z,100117.00
2022-12-08T21:29:48.587Z,100117.43
2022-12-08T21:32:14.624Z,100114.07
2022-12-08T21:34:43.653Z,100114.23
2022-12-08T21:37:17.088Z,100119.88
2022-12-08T21:45:16.228Z,100142.19
2022-12-08T21:47:43.289Z,100143.66
2022-12-08T21:50:11.145Z,100143.39
2022-12-08T21:52:43.030Z,100144.98
2022-12-08T21:55:10.426Z,100144.28
2022-12-08T21:57:36.507Z,100145.27
2022-12-08T22:00:03.463Z,100146.99
2022-12-08T22:02:30.576Z,100152.23
2022-12-08T22:04:56.920Z,100160.14
2022-12-08T22:07:23.124Z,100168.54
2022-12-08T22:09:49.239Z,100171.35
2022-12-08T22:12:16.158Z,100170.89
2022-12-08T22:14:43.164Z,100168.42
2022-12-08T22:17:09.590Z,100167.31
2022-12-08T22:19:35.872Z,100165.84
2022-12-08T22:22:02.267Z,100166.22
2022-12-08T22:24:31.291Z,100164.88
2022-12-08T22:26:57.545Z,100162.96
2022-12-08T22:29:23.444Z,100162.52
2022-12-08T22:31:49.838Z,100165.23
2022-12-08T22:34:15.927Z,100161.75
2022-12-08T22:36:42.189Z,100164.19
2022-12-08T22:39:09.207Z,100160.63
2022-12-08T22:41:35.279Z,100162.66
2022-12-08T22:44:04.972Z,100164.59
2022-12-08T22:46:30.995Z,100165.30
2022-12-08T22:48:57.415Z,100164.55
2022-12-08T22:51:23.478Z,100167.52
2022-12-08T22:53:50.145Z,100166.73
2022-12-08T22:56:17.064Z,100163.79
2022-12-08T22:58:43.909Z,100160.69
2022-12-08T23:01:42.514Z,100159.38
2022-12-08T23:04:46.606Z,100156.50
2022-12-08T23:07:25.551Z,100155.17
2022-12-08T23:14:23.284Z,100148.71
2022-12-08T23:21:27.612Z,100135.50
2022-12-08T23:24:36.218Z,100130.48
2022-12-08T23:33:47.845Z,100118.03
2022-12-08T23:36:15.138Z,100116.29
2022-12-08T23:38:42.268Z,100109.40
2022-12-08T23:41:12.351Z,100103.16
2022-12-08T23:43:43.722Z,100100.31
2022-12-08T23:46:09.969Z,100094.07
2022-12-08T23:48:36.143Z,100094.65
2022-12-08T23:51:02.620Z,100086.36
2022-12-08T23:53:29.859Z,100080.58
2022-12-08T23:56:06.816Z,100080.69
2022-12-08T23:58:34.031Z,100076.42
